createdAt,value
2023-03-19T00:00:32.790Z,2.30
2023-03-19T00:03:01.177Z,1.67
2023-03-19T00:05:29.209Z,1.90
2023-03-19T00:07:57.061Z,1.40
2023-03-19T00:10:24.894Z,1.42
2023-03-19T00:12:52.769Z,1.90
2023-03-19T00:15:20.667Z,1.10
2023-03-19T00:17:49.832Z,1.20
2023-03-19T00:20:18.292Z,1.30
2023-03-19T00:22:46.186Z,1.55
2023-03-19T00:25:13.981Z,1.08
2023-03-19T00:27:42.162Z,1.25
2023-03-19T00:30:11.449Z,1.20
2023-03-19T00:32:39.549Z,1.25
2023-03-19T00:35:10.629Z,1.23
2023-03-19T00:37:38.980Z,1.45
2023-03-19T00:40:08.665Z,0.80
2023-03-19T00:42:37.219Z,1.00
2023-03-19T00:45:05.618Z,0.90
2023-03-19T00:47:33.433Z,1.13
2023-03-19T00:50:04.312Z,0.90
2023-03-19T00:52:33.469Z,1.02
2023-03-19T00:55:04.603Z,1.52
2023-03-19T01:00:00.758Z,1.30
2023-03-19T01:02:28.680Z,0.95
2023-03-19T01:04:56.574Z,1.30
2023-03-19T01:07:24.698Z,1.38
2023-03-19T01:09:53.921Z,1.20
2023-03-19T01:12:21.729Z,1.38
2023-03-19T01:14:52.413Z,1.27
2023-03-19T01:17:20.317Z,0.77
2023-03-19T01:19:48.238Z,1.42
2023-03-19T01:22:16.742Z,1.30
2023-03-19T01:24:44.633Z,1.15
2023-03-19T01:27:14.192Z,1.55
2023-03-19T01:29:42.042Z,1.10
2023-03-19T01:32:09.941Z,1.50
2023-03-19T01:34:37.949Z,0.90
2023-03-19T01:37:05.872Z,1.33
2023-03-19T01:39:33.860Z,1.38
2023-03-19T01:42:03.327Z,1.13
2023-03-19T01:44:34.692Z,1.60
2023-03-19T01:47:05.745Z,1.40
2023-03-19T01:49:34.362Z,1.23
2023-03-19T01:52:05.988Z,0.93
2023-03-19T01:54:34.776Z,0.93
2023-03-19T01:57:08.057Z,0.90
2023-03-19T01:59:40.734Z,1.30
2023-03-19T02:02:12.928Z,0.88
2023-03-19T02:04:44.249Z,1.00
2023-03-19T02:07:13.734Z,1.10
2023-03-19T02:09:42.409Z,1.30
2023-03-19T02:12:10.846Z,0.98
2023-03-19T02:14:40.175Z,1.00
2023-03-19T02:17:08.678Z,1.40
2023-03-19T02:19:44.171Z,1.17
2023-03-19T02:22:12.945Z,1.25
2023-03-19T02:24:47.972Z,0.82
2023-03-19T02:27:17.176Z,1.13
2023-03-19T02:29:45.371Z,1.08
2023-03-19T02:32:13.408Z,1.85
2023-03-19T02:34:42.514Z,1.17
2023-03-19T02:37:18.107Z,1.15
2023-03-19T02:39:52.689Z,1.52
2023-03-19T02:42:23.600Z,1.33
2023-03-19T02:44:51.469Z,1.50
2023-03-19T02:47:19.646Z,1.50
2023-03-19T02:49:47.424Z,1.38
2023-03-19T02:52:15.554Z,1.25
2023-03-19T02:54:43.400Z,1.60
2023-03-19T02:57:11.213Z,1.35
2023-03-19T02:59:40.407Z,1.50
2023-03-19T03:02:08.383Z,1.83
2023-03-19T03:04:37.212Z,1.27
2023-03-19T03:07:05.252Z,1.38
2023-03-19T03:09:33.138Z,1.40
2023-03-19T03:12:01.265Z,1.50
2023-03-19T03:14:29.672Z,1.40
2023-03-19T03:16:58.916Z,1.45
2023-03-19T03:19:27.136Z,1.23
2023-03-19T03:21:55.001Z,1.00
2023-03-19T03:24:22.865Z,1.00
2023-03-19T03:26:50.705Z,0.47
2023-03-19T03:29:18.632Z,1.70
2023-03-19T03:31:46.626Z,1.40
2023-03-19T03:34:15.892Z,1.35
2023-03-19T03:36:43.774Z,1.23
2023-03-19T03:39:11.806Z,1.10
2023-03-19T03:41:39.760Z,1.30
2023-03-19T03:44:08.446Z,0.90
2023-03-19T03:46:36.668Z,1.27
2023-03-19T03:49:04.579Z,1.48
2023-03-19T03:51:33.879Z,0.70
2023-03-19T03:54:02.305Z,1.00
2023-03-19T03:56:30.260Z,1.08
2023-03-19T03:58:58.077Z,1.08
2023-03-19T04:01:25.908Z,1.43
2023-03-19T04:03:54.257Z,0.93
2023-03-19T04:06:24.373Z,0.70
2023-03-19T04:08:53.597Z,1.00
2023-03-19T04:11:21.478Z,0.80
2023-03-19T04:13:49.333Z,0.93
2023-03-19T04:16:17.365Z,0.70
2023-03-19T04:18:45.239Z,1.38
2023-03-19T04:21:13.585Z,0.85
2023-03-19T04:23:41.640Z,0.95
2023-03-19T04:26:12.242Z,0.60
2023-03-19T04:28:40.456Z,1.05
2023-03-19T04:31:10.755Z,1.00
2023-03-19T04:33:38.731Z,1.05
2023-03-19T04:36:07.272Z,0.90
2023-03-19T04:38:35.084Z,1.08
2023-03-19T04:41:04.117Z,0.73
2023-03-19T04:43:33.283Z,0.75
2023-03-19T04:46:01.494Z,0.40
2023-03-19T04:48:29.378Z,0.93
2023-03-19T04:50:58.217Z,0.90
2023-03-19T04:53:26.086Z,0.70
2023-03-19T04:55:53.940Z,0.90
2023-03-19T04:58:22.497Z,0.70
2023-03-19T05:00:51.633Z,1.02
2023-03-19T05:03:19.443Z,0.77
2023-03-19T05:05:47.212Z,0.60
2023-03-19T05:08:15.010Z,0.88
2023-03-19T05:10:42.887Z,0.50
2023-03-19T05:13:10.738Z,0.70
2023-03-19T05:15:38.791Z,0.60
2023-03-19T05:18:08.612Z,0.60
2023-03-19T05:20:37.178Z,0.67
2023-03-19T05:23:05.449Z,0.77
2023-03-19T05:25:35.204Z,1.08
2023-03-19T05:28:03.365Z,1.03
2023-03-19T05:30:31.777Z,0.80
2023-03-19T05:33:00.964Z,0.50
2023-03-19T05:35:30.860Z,0.75
2023-03-19T05:37:58.960Z,0.67
2023-03-19T05:40:26.918Z,0.70
2023-03-19T05:42:54.968Z,0.75
2023-03-19T05:45:22.801Z,0.88
2023-03-19T05:47:51.030Z,1.15
2023-03-19T05:50:19.123Z,0.90
2023-03-19T05:52:48.324Z,1.08
2023-03-19T05:55:17.359Z,0.95
2023-03-19T05:57:45.301Z,0.80
2023-03-19T06:00:14.814Z,0.90
2023-03-19T06:02:43.085Z,0.83
2023-03-19T06:05:12.033Z,1.20
2023-03-19T06:07:39.961Z,0.90
2023-03-19T06:10:10.660Z,0.93
2023-03-19T06:12:38.479Z,0.88
2023-03-19T06:15:07.541Z,1.30
2023-03-19T06:17:35.982Z,1.20
2023-03-19T06:20:04.296Z,1.05
2023-03-19T06:22:32.214Z,0.70
2023-03-19T06:25:00.509Z,0.80
2023-03-19T06:27:29.723Z,0.93
2023-03-19T06:29:57.630Z,0.88
2023-03-19T06:32:25.655Z,1.08
2023-03-19T06:34:55.028Z,0.60
2023-03-19T06:37:23.094Z,1.10
2023-03-19T06:39:51.042Z,1.02
2023-03-19T06:42:19.087Z,1.00
2023-03-19T06:44:48.334Z,1.05
2023-03-19T06:47:16.567Z,0.90
2023-03-19T06:49:44.586Z,0.57
2023-03-19T06:52:12.451Z,0.85
2023-03-19T06:54:40.305Z,1.23
2023-03-19T06:57:08.248Z,1.15
2023-03-19T06:59:36.156Z,1.02
2023-03-19T07:02:05.487Z,1.00
2023-03-19T07:04:33.521Z,1.05
2023-03-19T07:07:02.550Z,1.10
2023-03-19T07:09:30.602Z,1.02
2023-03-19T07:11:58.459Z,1.27
2023-03-19T07:14:26.468Z,1.00
2023-03-19T07:16:54.302Z,1.07
2023-03-19T07:19:23.614Z,0.95
2023-03-19T07:21:51.563Z,0.88
2023-03-19T07:24:19.456Z,1.15
2023-03-19T07:26:47.719Z,0.90
2023-03-19T07:29:15.735Z,0.90
2023-03-19T07:31:43.657Z,0.82
2023-03-19T07:34:11.576Z,1.10
2023-03-19T07:36:40.995Z,0.80
2023-03-19T07:39:08.907Z,0.95
2023-03-19T07:41:36.680Z,0.82
2023-03-19T07:44:04.529Z,1.15
2023-03-19T07:46:32.433Z,1.10
2023-03-19T07:49:00.866Z,0.90
2023-03-19T07:51:28.864Z,1.15
2023-03-19T07:53:58.060Z,1.15
2023-03-19T07:56:25.997Z,1.15
2023-03-19T07:58:54.007Z,0.75
2023-03-19T08:01:21.904Z,0.73
2023-03-19T08:03:49.704Z,1.25
2023-03-19T08:06:17.652Z,0.68
2023-03-19T08:08:45.645Z,0.80
2023-03-19T08:11:14.858Z,0.93
2023-03-19T08:13:43.285Z,0.80
2023-03-19T08:16:11.632Z,1.10
2023-03-19T08:18:39.517Z,0.88
2023-03-19T08:21:07.785Z,0.70
2023-03-19T08:23:36.139Z,0.60
2023-03-19T08:26:04.032Z,0.63
2023-03-19T08:28:33.350Z,0.90
2023-03-19T08:31:08.305Z,1.10
2023-03-19T08:33:36.514Z,0.60
2023-03-19T08:36:09.346Z,0.85
2023-03-19T08:38:37.472Z,0.75
2023-03-19T08:41:06.190Z,0.80
2023-03-19T08:43:37.671Z,1.08
2023-03-19T08:46:06.547Z,0.90
2023-03-19T08:48:34.626Z,0.60
2023-03-19T08:51:04.096Z,0.82
2023-03-19T08:53:32.796Z,0.60
2023-03-19T08:56:05.410Z,0.40
2023-03-19T08:58:34.857Z,0.60
2023-03-19T09:01:03.617Z,0.40
2023-03-19T09:03:32.120Z,0.57
2023-03-19T09:06:01.464Z,0.40
2023-03-19T09:08:30.962Z,0.50
2023-03-19T09:10:59.458Z,0.70
2023-03-19T09:13:27.982Z,0.85
2023-03-19T09:15:57.285Z,0.80
2023-03-19T09:18:25.620Z,0.77
2023-03-19T09:20:53.998Z,0.20
2023-03-19T09:23:22.729Z,0.50
2023-03-19T09:25:51.070Z,0.60
2023-03-19T09:28:19.227Z,0.55
2023-03-19T09:30:47.752Z,0.40
2023-03-19T09:33:17.957Z,0.57
2023-03-19T09:35:50.805Z,0.50
2023-03-19T09:38:18.764Z,0.25
2023-03-19T09:40:48.818Z,0.40
2023-03-19T09:43:37.872Z,1.00
2023-03-19T09:46:14.316Z,0.52
2023-03-19T09:48:49.090Z,0.45
2023-03-19T09:51:22.872Z,0.50
2023-03-19T09:53:57.378Z,0.75
2023-03-19T09:56:27.890Z,0.55
2023-03-19T09:58:55.830Z,0.40
2023-03-19T10:01:27.688Z,0.50
2023-03-19T10:04:27.936Z,0.75
2023-03-19T10:07:01.121Z,0.45
2023-03-19T10:09:46.401Z,0.38
2023-03-19T10:12:24.954Z,0.40
2023-03-19T10:15:11.390Z,0.95
2023-03-19T10:17:43.909Z,0.43
2023-03-19T10:20:20.904Z,0.50
2023-03-19T10:22:52.585Z,0.70
2023-03-19T10:25:26.349Z,0.38
2023-03-19T10:27:57.781Z,0.50
2023-03-19T10:30:26.976Z,0.40
2023-03-19T10:33:07.444Z,0.32
2023-03-19T10:35:42.431Z,0.50
2023-03-19T10:38:22.323Z,0.70
2023-03-19T10:41:05.187Z,0.40
2023-03-19T10:43:34.941Z,0.43
2023-03-19T10:46:02.827Z,0.60
2023-03-19T10:48:30.835Z,0.40
2023-03-19T10:51:07.827Z,0.50
2023-03-19T10:53:37.417Z,0.50
2023-03-19T10:56:07.252Z,0.60
2023-03-19T10:58:36.769Z,0.40
2023-03-19T11:01:08.257Z,0.40
2023-03-19T11:03:38.272Z,0.50
2023-03-19T11:06:19.906Z,0.70
2023-03-19T11:08:56.714Z,0.90
2023-03-19T11:11:27.221Z,0.50
2023-03-19T11:13:55.468Z,0.98
2023-03-19T11:16:23.615Z,0.43
2023-03-19T11:18:51.545Z,0.50
2023-03-19T11:21:29.067Z,0.40
2023-03-19T11:24:02.854Z,0.40
2023-03-19T11:26:31.254Z,0.75
2023-03-19T11:29:05.231Z,0.60
2023-03-19T11:31:39.530Z,0.50
2023-03-19T11:34:25.334Z,0.40
2023-03-19T11:37:01.836Z,0.63
2023-03-19T11:39:36.082Z,0.70
2023-03-19T11:42:26.935Z,0.65
2023-03-19T11:45:08.154Z,0.73
2023-03-19T11:50:21.131Z,0.50
2023-03-19T11:53:02.080Z,0.57
2023-03-19T11:55:36.454Z,0.20
2023-03-19T11:58:21.722Z,0.45
2023-03-19T12:00:52.195Z,0.30
2023-03-19T12:03:48.935Z,0.55
2023-03-19T12:06:29.643Z,0.30
2023-03-19T12:09:04.090Z,0.60
2023-03-19T12:11:43.356Z,0.57
2023-03-19T12:14:26.708Z,0.30
2023-03-19T12:17:13.077Z,0.50
2023-03-19T12:20:15.619Z,0.40
2023-03-19T12:22:55.033Z,0.20
2023-03-19T12:25:36.001Z,0.68
2023-03-19T12:28:11.317Z,0.60
2023-03-19T12:30:43.434Z,0.45
2023-03-19T12:33:34.640Z,0.60
2023-03-19T12:36:06.258Z,0.38
2023-03-19T12:38:39.892Z,0.40
2023-03-19T12:41:12.561Z,0.45
2023-03-19T12:43:47.612Z,0.40
2023-03-19T12:46:19.982Z,0.57
2023-03-19T12:48:51.516Z,0.60
2023-03-19T12:51:23.945Z,0.40
2023-03-19T12:53:56.465Z,0.40
2023-03-19T12:56:34.238Z,0.40
2023-03-19T12:59:09.868Z,0.25
2023-03-19T13:01:40.816Z,0.38
2023-03-19T13:04:14.956Z,0.60
2023-03-19T13:06:48.871Z,0.50
2023-03-19T13:09:26.964Z,0.70
2023-03-19T13:12:02.584Z,0.40
2023-03-19T13:14:37.450Z,0.47
2023-03-19T13:17:21.561Z,0.45
2023-03-19T13:19:53.993Z,0.50
2023-03-19T13:22:23.635Z,0.30
2023-03-19T13:24:53.385Z,0.40
2023-03-19T13:27:24.814Z,0.60
2023-03-19T13:30:16.965Z,0.30
2023-03-19T13:32:49.272Z,0.40
2023-03-19T13:35:36.283Z,0.40
2023-03-19T13:38:11.521Z,0.43
2023-03-19T13:40:45.797Z,0.40
2023-03-19T13:43:56.992Z,0.38
2023-03-19T13:46:36.309Z,0.55
2023-03-19T13:49:25.295Z,0.30
2023-03-19T13:51:56.412Z,0.43
2023-03-19T13:57:32.887Z,0.65
2023-03-19T14:00:41.515Z,0.57
2023-03-19T14:03:21.997Z,0.35
2023-03-19T14:05:52.319Z,0.43
2023-03-19T14:08:23.166Z,0.90
2023-03-19T14:10:53.726Z,0.73
2023-03-19T14:13:34.676Z,0.70
2023-03-19T14:16:14.017Z,0.65
2023-03-19T14:18:44.578Z,0.40
2023-03-19T14:21:18.930Z,0.60
2023-03-19T14:23:57.711Z,0.40
2023-03-19T14:26:28.887Z,0.30
2023-03-19T14:29:08.460Z,0.50
2023-03-19T14:31:44.090Z,0.30
2023-03-19T14:34:25.782Z,0.32
2023-03-19T14:36:59.808Z,0.47
2023-03-19T14:39:31.101Z,0.40
2023-03-19T14:42:07.081Z,0.40
2023-03-19T14:45:19.338Z,0.30
2023-03-19T14:48:00.839Z,0.30
2023-03-19T14:51:02.599Z,0.22
2023-03-19T14:53:38.995Z,0.50
2023-03-19T14:56:14.783Z,0.40
2023-03-19T14:58:50.523Z,0.40
2023-03-19T15:01:19.801Z,0.25
2023-03-19T15:03:53.130Z,0.57
2023-03-19T15:06:22.795Z,0.68
2023-03-19T15:08:51.551Z,0.40
2023-03-19T15:11:47.987Z,0.30
2023-03-19T15:14:39.039Z,0.40
2023-03-19T15:17:13.018Z,0.30
2023-03-19T15:19:41.508Z,0.40
2023-03-19T15:22:14.852Z,0.40
2023-03-19T15:24:43.277Z,0.40
2023-03-19T15:27:21.901Z,0.30
2023-03-19T15:29:51.683Z,0.20
2023-03-19T15:32:50.816Z,0.30
2023-03-19T15:35:23.907Z,0.40
2023-03-19T15:37:58.252Z,0.52
2023-03-19T15:40:30.257Z,0.38
2023-03-19T15:43:01.203Z,0.35
2023-03-19T15:45:33.557Z,0.60
2023-03-19T15:48:05.898Z,0.38
2023-03-19T15:50:37.144Z,0.43
2023-03-19T15:53:11.768Z,0.40
2023-03-19T15:55:40.839Z,0.35
2023-03-19T15:58:12.241Z,0.50
2023-03-19T16:00:42.040Z,0.38
2023-03-19T16:03:17.302Z,0.22
2023-03-19T16:05:45.340Z,0.38
2023-03-19T16:08:20.879Z,0.30
2023-03-19T16:10:48.680Z,0.30
2023-03-19T16:13:38.563Z,0.30
2023-03-19T16:16:08.826Z,0.32
2023-03-19T16:18:45.433Z,0.60
2023-03-19T16:21:17.162Z,0.50
2023-03-19T16:23:51.199Z,0.20
2023-03-19T16:26:23.479Z,0.50
2023-03-19T16:29:06.568Z,0.30
2023-03-19T16:31:43.834Z,0.30
2023-03-19T16:34:31.864Z,0.38
2023-03-19T16:37:00.868Z,0.20
2023-03-19T16:39:35.893Z,0.32
2023-03-19T16:42:27.862Z,0.20
2023-03-19T16:44:56.042Z,0.40
2023-03-19T16:47:24.083Z,0.60
2023-03-19T16:49:52.095Z,0.40
2023-03-19T16:52:23.643Z,0.30
2023-03-19T16:55:00.768Z,0.50
2023-03-19T16:57:29.006Z,0.35
2023-03-19T16:59:57.076Z,0.38
2023-03-19T17:02:24.944Z,0.25
2023-03-19T17:04:52.772Z,0.10
2023-03-19T17:07:20.676Z,0.30
2023-03-19T17:09:48.614Z,0.30
2023-03-19T17:12:18.412Z,0.40
2023-03-19T17:14:53.955Z,0.20
2023-03-19T17:17:22.026Z,0.50
2023-03-19T17:19:51.384Z,0.13
2023-03-19T17:22:19.336Z,0.52
2023-03-19T17:24:47.402Z,0.60
2023-03-19T17:27:15.585Z,0.73
2023-03-19T17:29:44.894Z,0.40
2023-03-19T17:32:18.692Z,0.30
2023-03-19T17:34:46.810Z,0.47
2023-03-19T17:37:15.367Z,0.55
2023-03-19T17:39:45.669Z,0.55
2023-03-19T17:42:19.342Z,0.50
2023-03-19T17:44:48.656Z,0.50
2023-03-19T17:47:18.450Z,0.35
2023-03-19T17:49:47.352Z,0.63
2023-03-19T17:52:16.587Z,0.55
2023-03-19T17:54:44.464Z,0.50
2023-03-19T17:57:14.496Z,0.55
2023-03-19T17:59:42.393Z,0.43
2023-03-19T18:02:27.591Z,0.40
2023-03-19T18:04:56.137Z,0.30
2023-03-19T18:07:23.981Z,0.17
2023-03-19T18:09:51.838Z,0.68
2023-03-19T18:12:19.655Z,0.60
2023-03-19T18:14:47.543Z,0.50
2023-03-19T18:17:17.618Z,0.52
2023-03-19T18:19:50.658Z,0.82
2023-03-19T18:22:20.429Z,0.70
2023-03-19T18:24:48.224Z,0.50
2023-03-19T18:27:16.079Z,0.68
2023-03-19T18:29:43.949Z,0.50
2023-03-19T18:32:15.863Z,0.52
2023-03-19T18:34:43.759Z,0.55
2023-03-19T18:37:16.913Z,0.47
2023-03-19T18:39:44.791Z,0.60
2023-03-19T18:42:14.223Z,0.47
2023-03-19T18:44:42.674Z,0.60
2023-03-19T18:47:14.539Z,0.43
2023-03-19T18:49:42.915Z,0.80
2023-03-19T18:52:19.083Z,0.47
2023-03-19T18:54:47.583Z,0.40
2023-03-19T18:57:16.386Z,0.70
2023-03-19T18:59:44.571Z,0.43
2023-03-19T19:02:29.549Z,0.47
2023-03-19T19:04:58.178Z,0.52
2023-03-19T19:07:27.603Z,0.90
2023-03-19T19:09:55.449Z,0.57
2023-03-19T19:12:23.390Z,0.60
2023-03-19T19:14:51.801Z,0.60
2023-03-19T19:17:24.015Z,0.70
2023-03-19T19:19:51.861Z,0.93
2023-03-19T19:22:20.744Z,1.50
2023-03-19T19:24:50.052Z,1.02
2023-03-19T19:27:19.905Z,1.00
2023-03-19T19:29:47.961Z,1.00
2023-03-19T19:32:21.139Z,1.17
2023-03-19T19:34:49.021Z,1.08
2023-03-19T19:37:18.728Z,1.10
2023-03-19T19:39:46.835Z,1.08
2023-03-19T19:42:18.079Z,1.20
2023-03-19T19:44:50.935Z,1.02
2023-03-19T19:47:19.225Z,1.05
2023-03-19T19:49:47.702Z,1.15
2023-03-19T19:52:17.392Z,1.45
2023-03-19T19:54:46.087Z,0.98
2023-03-19T19:57:19.485Z,1.10
2023-03-19T19:59:47.451Z,1.02
2023-03-19T20:02:23.129Z,1.60
2023-03-19T20:04:51.208Z,1.38
2023-03-19T20:07:19.329Z,1.75
2023-03-19T20:09:47.751Z,1.38
2023-03-19T20:12:22.063Z,1.63
2023-03-19T20:14:51.113Z,1.55
2023-03-19T20:17:20.966Z,1.63
2023-03-19T20:19:49.100Z,1.55
2023-03-19T20:22:17.477Z,1.23
2023-03-19T20:24:48.769Z,1.55
2023-03-19T20:27:22.271Z,2.08
2023-03-19T20:29:50.637Z,1.73
2023-03-19T20:32:28.035Z,1.70
2023-03-19T20:34:55.941Z,1.90
2023-03-19T20:37:23.821Z,1.58
2023-03-19T20:39:51.667Z,1.58
2023-03-19T20:42:21.182Z,1.70
2023-03-19T20:44:49.537Z,1.60
2023-03-19T20:47:19.381Z,1.42
2023-03-19T20:49:47.492Z,1.58
2023-03-19T20:52:16.494Z,1.40
2023-03-19T20:54:44.718Z,1.45
2023-03-19T20:57:14.774Z,1.60
2023-03-19T20:59:46.813Z,1.65
2023-03-19T21:02:17.059Z,1.50
2023-03-19T21:04:45.506Z,1.57
2023-03-19T21:07:26.311Z,2.08
2023-03-19T21:09:54.299Z,1.95
2023-03-19T21:12:29.245Z,1.25
2023-03-19T21:14:59.027Z,1.45
2023-03-19T21:17:28.657Z,1.67
2023-03-19T21:19:57.645Z,1.33
2023-03-19T21:22:29.417Z,1.52
2023-03-19T21:25:03.253Z,2.05
2023-03-19T21:27:32.750Z,1.83
2023-03-19T21:30:02.588Z,2.30
2023-03-19T21:32:30.391Z,1.88
2023-03-19T21:34:58.263Z,2.17
2023-03-19T21:37:26.112Z,1.45
2023-03-19T21:39:53.944Z,1.38
2023-03-19T21:42:23.374Z,1.33
2023-03-19T21:44:59.022Z,1.65
2023-03-19T21:47:28.712Z,1.77
2023-03-19T21:49:58.575Z,1.30
2023-03-19T21:54:55.851Z,1.00
2023-03-19T21:57:24.026Z,1.27
2023-03-19T21:59:51.844Z,1.10
2023-03-19T22:02:40.877Z,1.30
2023-03-19T22:05:24.072Z,1.00
2023-03-19T22:07:52.668Z,1.20
2023-03-19T22:10:22.142Z,1.30
2023-03-19T22:12:50.621Z,1.60
2023-03-19T22:15:34.716Z,1.10
2023-03-19T22:18:05.752Z,0.85
2023-03-19T22:20:34.047Z,1.05
2023-03-19T22:23:02.511Z,1.38
2023-03-19T22:25:35.349Z,1.10
2023-03-19T22:28:07.614Z,1.40
2023-03-19T22:30:38.437Z,0.90
2023-03-19T22:33:15.259Z,1.17
2023-03-19T22:35:44.041Z,1.10
2023-03-19T22:38:12.456Z,0.90
2023-03-19T22:40:41.072Z,0.65
2023-03-19T22:43:19.478Z,0.50
2023-03-19T22:45:53.234Z,0.80
2023-03-19T22:48:23.013Z,1.08
2023-03-19T22:50:50.879Z,0.60
2023-03-19T22:53:24.943Z,0.65
2023-03-19T22:55:52.874Z,0.70
2023-03-19T22:58:20.839Z,0.80
2023-03-19T23:00:49.058Z,0.60
2023-03-19T23:03:21.297Z,0.57
2023-03-19T23:05:53.855Z,0.20
2023-03-19T23:08:22.687Z,0.45
2023-03-19T23:10:51.107Z,0.70
2023-03-19T23:13:19.152Z,0.40
2023-03-19T23:15:48.388Z,0.43
2023-03-19T23:18:19.242Z,0.43
2023-03-19T23:20:47.824Z,0.38
2023-03-19T23:23:17.893Z,0.43
2023-03-19T23:25:46.979Z,0.57
2023-03-19T23:28:20.242Z,0.30
2023-03-19T23:30:48.900Z,0.32
2023-03-19T23:33:18.091Z,0.40
2023-03-19T23:35:46.033Z,0.22
2023-03-19T23:38:15.145Z,0.50
2023-03-19T23:40:46.187Z,0.30
2023-03-19T23:43:19.891Z,0.20
2023-03-19T23:45:49.870Z,0.55
2023-03-19T23:48:19.727Z,0.43
2023-03-19T23:50:48.372Z,0.25
2023-03-19T23:53:20.195Z,0.52
2023-03-19T23:55:51.942Z,0.32
2023-03-19T23:58:20.444Z,0.30
